Time;durP1;ratioP1;P1;durP2;ratioP2;P2;SDS_P1;SDS_P2;PMS_P1;PMS_P2;Temp;Humidity;BMP_temperature;BMP_pressure;BME280_temperature;BME280_humidity;BME280_pressure;Samples;Min_cycle;Max_cycle;Signal;HPM_P1;HPM_P2
2023/05/03 00:00:47;;;;;;;12.43;4.93;;;;;;;;;;5083371;28;20032;-65
2023/05/03 00:03:13;;;;;;;7.07;4.20;;;;;;;;;;5090362;28;20023;-65
2023/05/03 00:05:38;;;;;;;12.95;4.85;;;;;;;;;;5090518;28;20024;-65
2023/05/03 00:08:04;;;;;;;9.98;4.32;;;;;;;;;;5089707;28;20066;-65
2023/05/03 00:10:29;;;;;;;8.70;4.47;;;;;;;;;;5088091;28;20379;-65
2023/05/03 00:12:55;;;;;;;6.93;4.15;;;;;;;;;;5088804;28;20024;-65
2023/05/03 00:15:20;;;;;;;7.97;4.53;;;;;;;;;;5091010;28;20479;-65
2023/05/03 00:17:46;;;;;;;10.90;4.32;;;;;;;;;;5090881;28;20026;-65
2023/05/03 00:20:11;;;;;;;13.60;4.63;;;;;;;;;;5090808;28;20028;-65
2023/05/03 00:22:36;;;;;;;10.02;3.92;;;;;;;;;;5088759;28;20028;-65
2023/05/03 00:25:01;;;;;;;7.80;4.95;;;;;;;;;;5089267;28;20534;-65
2023/05/03 00:27:27;;;;;;;9.00;4.70;;;;;;;;;;5090875;28;20032;-65
2023/05/03 00:29:52;;;;;;;7.47;4.40;;;;;;;;;;5090612;28;20114;-65
2023/05/03 00:32:18;;;;;;;7.38;4.72;;;;;;;;;;5089848;28;20455;-66
2023/05/03 00:34:44;;;;;;;9.73;4.53;;;;;;;;;;5080254;28;20024;-65
2023/05/03 00:37:09;;;;;;;9.70;5.25;;;;;;;;;;5087748;28;20481;-65
2023/05/03 00:39:35;;;;;;;7.57;3.90;;;;;;;;;;5090997;28;20103;-65
2023/05/03 00:42:02;;;;;;;8.40;4.28;;;;;;;;;;5089996;28;20030;-65
2023/05/03 00:44:29;;;;;;;11.15;5.65;;;;;;;;;;5091920;28;20501;-65
2023/05/03 00:46:55;;;;;;;11.60;4.93;;;;;;;;;;5093495;28;20041;-65
2023/05/03 00:49:20;;;;;;;7.28;4.95;;;;;;;;;;5093903;28;20028;-65
2023/05/03 00:51:46;;;;;;;12.15;5.13;;;;;;;;;;5093768;28;20056;-65
2023/05/03 00:54:11;;;;;;;13.13;5.28;;;;;;;;;;5093452;28;20071;-65
2023/05/03 00:56:37;;;;;;;16.40;5.40;;;;;;;;;;5074133;28;20738;-65
2023/05/03 00:59:03;;;;;;;8.70;4.53;;;;;;;;;;5094241;28;20405;-65
2023/05/03 01:01:29;;;;;;;6.60;4.82;;;;;;;;;;5092470;28;20012;-65
2023/05/03 01:03:55;;;;;;;11.52;5.45;;;;;;;;;;5094184;28;20478;-65
2023/05/03 01:06:26;;;;;;;7.63;4.57;;;;;;;;;;5093538;28;20047;-65
2023/05/03 01:08:58;;;;;;;13.13;5.18;;;;;;;;;;5093854;28;20103;-65
2023/05/03 01:11:26;;;;;;;8.52;5.32;;;;;;;;;;5092701;28;20054;-65
2023/05/03 01:13:55;;;;;;;8.95;5.65;;;;;;;;;;5094048;28;20031;-65
2023/05/03 01:16:40;;;;;;;10.27;4.55;;;;;;;;;;5093679;28;20069;-65
2023/05/03 01:19:18;;;;;;;9.30;4.90;;;;;;;;;;5092151;28;20067;-65
2023/05/03 01:21:46;;;;;;;8.88;5.07;;;;;;;;;;5093656;28;20028;-65
2023/05/03 01:24:20;;;;;;;8.80;5.00;;;;;;;;;;5092022;28;20054;-65
2023/05/03 01:26:46;;;;;;;7.22;4.53;;;;;;;;;;5088872;28;20462;-65
2023/05/03 01:29:11;;;;;;;8.27;4.95;;;;;;;;;;5092898;28;20017;-65
2023/05/03 01:31:36;;;;;;;9.50;5.15;;;;;;;;;;5093241;28;20260;-65
2023/05/03 01:34:14;;;;;;;11.55;5.45;;;;;;;;;;5092619;28;20459;-65
2023/05/03 01:36:41;;;;;;;7.80;5.18;;;;;;;;;;5093583;28;20118;-65
2023/05/03 01:39:09;;;;;;;7.15;4.30;;;;;;;;;;5092862;28;20031;-65
2023/05/03 01:41:36;;;;;;;10.65;5.57;;;;;;;;;;5080017;28;20036;-65
2023/05/03 01:44:03;;;;;;;15.00;5.82;;;;;;;;;;5092202;28;20500;-65
2023/05/03 01:46:28;;;;;;;8.43;5.07;;;;;;;;;;5092022;28;20031;-65
2023/05/03 01:48:53;;;;;;;12.05;5.63;;;;;;;;;;5093625;28;20034;-65
2023/05/03 01:51:18;;;;;;;9.98;5.65;;;;;;;;;;5093151;28;20027;-65
2023/05/03 01:53:44;;;;;;;10.75;5.65;;;;;;;;;;5092825;28;20044;-65
2023/05/03 01:56:10;;;;;;;19.58;6.25;;;;;;;;;;5092354;28;20043;-65
2023/05/03 01:58:35;;;;;;;11.15;5.97;;;;;;;;;;5092494;28;20016;-65
2023/05/03 02:01:00;;;;;;;8.40;4.38;;;;;;;;;;5091277;28;20478;-65
2023/05/03 02:03:25;;;;;;;10.02;5.63;;;;;;;;;;5091937;28;20031;-65
2023/05/03 02:05:51;;;;;;;11.57;6.07;;;;;;;;;;5092609;28;20032;-65
2023/05/03 02:08:16;;;;;;;16.95;6.38;;;;;;;;;;5092401;28;20034;-65
2023/05/03 02:10:44;;;;;;;18.75;5.82;;;;;;;;;;5092099;28;20035;-65
2023/05/03 02:13:09;;;;;;;10.63;5.35;;;;;;;;;;5092228;28;20459;-65
2023/05/03 02:15:35;;;;;;;13.68;5.82;;;;;;;;;;5091771;28;20076;-65
2023/05/03 02:18:01;;;;;;;12.88;6.18;;;;;;;;;;5092446;28;20051;-65
2023/05/03 02:20:26;;;;;;;11.43;5.22;;;;;;;;;;5092596;28;20089;-65
2023/05/03 02:22:52;;;;;;;9.95;5.78;;;;;;;;;;5092211;28;20051;-65
2023/05/03 02:25:17;;;;;;;10.60;5.05;;;;;;;;;;5092482;28;20035;-65
2023/05/03 02:27:42;;;;;;;9.73;5.68;;;;;;;;;;5091929;28;20103;-65
2023/05/03 02:30:08;;;;;;;10.45;6.00;;;;;;;;;;5087664;28;20028;-65
2023/05/03 02:32:33;;;;;;;8.23;5.50;;;;;;;;;;5072073;28;20030;-65
2023/05/03 02:34:58;;;;;;;7.80;5.40;;;;;;;;;;5091840;28;20027;-65
2023/05/03 02:37:23;;;;;;;10.93;5.85;;;;;;;;;;5092369;28;20486;-65
2023/05/03 02:39:49;;;;;;;12.38;6.47;;;;;;;;;;5091476;28;20036;-65
2023/05/03 02:42:14;;;;;;;8.48;5.78;;;;;;;;;;5091941;28;20028;-65
2023/05/03 02:44:40;;;;;;;8.05;5.82;;;;;;;;;;5091437;28;20077;-65
2023/05/03 02:47:05;;;;;;;10.45;6.90;;;;;;;;;;5091728;28;20073;-65
2023/05/03 02:49:30;;;;;;;14.40;7.38;;;;;;;;;;5091747;28;20125;-65
2023/05/03 02:51:56;;;;;;;10.88;7.38;;;;;;;;;;5091672;28;20028;-65
2023/05/03 02:54:22;;;;;;;11.45;7.13;;;;;;;;;;5091731;28;20066;-65
2023/05/03 02:56:47;;;;;;;13.55;7.20;;;;;;;;;;5091745;28;20028;-65
2023/05/03 02:59:12;;;;;;;15.48;7.75;;;;;;;;;;5086779;28;20095;-65
2023/05/03 03:01:37;;;;;;;16.98;7.53;;;;;;;;;;5070092;28;20485;-65
2023/05/03 03:04:04;;;;;;;11.57;7.50;;;;;;;;;;5091869;28;20028;-66
2023/05/03 03:06:30;;;;;;;14.52;7.10;;;;;;;;;;5091615;28;20031;-65
2023/05/03 03:08:55;;;;;;;14.05;7.20;;;;;;;;;;5090060;28;20048;-65
2023/05/03 03:11:21;;;;;;;9.93;7.13;;;;;;;;;;5091332;28;20036;-65
2023/05/03 03:13:46;;;;;;;12.88;8.00;;;;;;;;;;5092354;28;20059;-65
2023/05/03 03:16:12;;;;;;;12.65;7.63;;;;;;;;;;5091096;28;20446;-66
2023/05/03 03:18:37;;;;;;;11.70;7.68;;;;;;;;;;5091931;28;20055;-65
2023/05/03 03:21:03;;;;;;;10.88;7.70;;;;;;;;;;5091540;28;20582;-65
2023/05/03 03:23:28;;;;;;;10.57;7.57;;;;;;;;;;5082090;28;20025;-65
2023/05/03 03:25:53;;;;;;;15.40;8.70;;;;;;;;;;5089021;28;20035;-65
2023/05/03 03:28:19;;;;;;;11.73;7.80;;;;;;;;;;5089835;28;20498;-65
2023/05/03 03:30:44;;;;;;;12.65;8.55;;;;;;;;;;5091618;28;20016;-65
2023/05/03 03:33:10;;;;;;;9.93;7.60;;;;;;;;;;5091242;28;20028;-65
2023/05/03 03:35:35;;;;;;;13.63;8.50;;;;;;;;;;5090778;28;20099;-65
2023/05/03 03:38:01;;;;;;;10.00;7.40;;;;;;;;;;5090978;28;20153;-65
2023/05/03 03:40:26;;;;;;;11.80;8.63;;;;;;;;;;5091213;28;21072;-65
2023/05/03 03:42:51;;;;;;;13.75;8.75;;;;;;;;;;5091772;28;20031;-65
2023/05/03 03:45:17;;;;;;;14.52;9.25;;;;;;;;;;5090560;28;20089;-65
2023/05/03 03:47:42;;;;;;;13.40;8.85;;;;;;;;;;5091709;28;20016;-65
2023/05/03 03:50:07;;;;;;;11.32;8.38;;;;;;;;;;5090763;28;20032;-65
2023/05/03 03:52:33;;;;;;;13.77;9.38;;;;;;;;;;5089622;28;20024;-65
2023/05/03 03:54:58;;;;;;;12.27;8.43;;;;;;;;;;5090084;28;20024;-65
2023/05/03 03:57:24;;;;;;;14.45;9.15;;;;;;;;;;5089951;28;20394;-65
2023/05/03 03:59:50;;;;;;;14.73;9.73;;;;;;;;;;5090760;28;20027;-65
2023/05/03 04:02:15;;;;;;;13.20;9.48;;;;;;;;;;5090565;28;20382;-65
2023/05/03 04:04:40;;;;;;;12.23;8.98;;;;;;;;;;5089176;28;20077;-65
2023/05/03 04:07:06;;;;;;;10.70;8.18;;;;;;;;;;5090999;28;20032;-65
2023/05/03 04:09:31;;;;;;;13.63;8.93;;;;;;;;;;5089832;28;20056;-65
2023/05/03 04:11:57;;;;;;;12.73;9.00;;;;;;;;;;5090238;28;20063;-65
2023/05/03 04:14:22;;;;;;;11.68;8.95;;;;;;;;;;5090471;28;20044;-65
2023/05/03 04:16:47;;;;;;;17.33;10.05;;;;;;;;;;5090079;28;20052;-65
2023/05/03 04:19:12;;;;;;;13.48;9.32;;;;;;;;;;5089747;28;20016;-65
2023/05/03 04:21:38;;;;;;;19.13;9.93;;;;;;;;;;5088819;28;20056;-65
2023/05/03 04:24:04;;;;;;;16.77;9.88;;;;;;;;;;5088392;28;20069;-65
2023/05/03 04:26:30;;;;;;;13.40;9.38;;;;;;;;;;5088558;28;20059;-65
2023/05/03 04:28:55;;;;;;;18.50;9.52;;;;;;;;;;5089887;28;20474;-65
2023/05/03 04:31:20;;;;;;;14.95;10.45;;;;;;;;;;5088040;28;20036;-65
2023/05/03 04:33:46;;;;;;;14.57;10.32;;;;;;;;;;5090274;28;20035;-65
2023/05/03 04:36:14;;;;;;;17.80;10.20;;;;;;;;;;5088656;28;20428;-64
2023/05/03 04:38:40;;;;;;;16.20;10.02;;;;;;;;;;5089781;28;20055;-65
2023/05/03 04:41:05;;;;;;;17.58;11.13;;;;;;;;;;5090212;28;20049;-65
2023/05/03 04:43:31;;;;;;;17.63;9.77;;;;;;;;;;5090061;28;20060;-65
2023/05/03 04:45:57;;;;;;;12.63;9.73;;;;;;;;;;5090075;28;20036;-65
2023/05/03 04:48:23;;;;;;;13.23;9.85;;;;;;;;;;5072577;28;20021;-64
2023/05/03 04:50:48;;;;;;;15.13;10.20;;;;;;;;;;5090061;28;20157;-65
2023/05/03 04:53:14;;;;;;;14.52;9.27;;;;;;;;;;5089926;28;20387;-65
2023/05/03 04:55:39;;;;;;;12.70;9.68;;;;;;;;;;5089541;28;20016;-65
2023/05/03 04:58:05;;;;;;;15.80;10.00;;;;;;;;;;5090116;28;20024;-65
2023/05/03 05:00:30;;;;;;;20.08;10.07;;;;;;;;;;5090378;28;20024;-65
2023/05/03 05:02:57;;;;;;;16.90;9.93;;;;;;;;;;5090066;28;20031;-65
2023/05/03 05:05:22;;;;;;;13.90;9.77;;;;;;;;;;5089775;28;20111;-65
2023/05/03 05:07:48;;;;;;;20.15;10.52;;;;;;;;;;5088455;28;20445;-65
2023/05/03 05:10:13;;;;;;;13.10;9.57;;;;;;;;;;5089688;28;20031;-65
2023/05/03 05:12:39;;;;;;;12.60;8.85;;;;;;;;;;5089769;28;20107;-65
2023/05/03 05:15:04;;;;;;;17.40;10.52;;;;;;;;;;5089737;28;20024;-65
2023/05/03 05:17:29;;;;;;;17.40;9.80;;;;;;;;;;5089595;28;20020;-65
2023/05/03 05:19:55;;;;;;;15.15;10.02;;;;;;;;;;5089428;28;20054;-65
2023/05/03 05:22:20;;;;;;;14.48;9.20;;;;;;;;;;5078018;28;20047;-65
2023/05/03 05:24:46;;;;;;;14.25;9.90;;;;;;;;;;5088443;28;20466;-65
2023/05/03 05:27:11;;;;;;;19.80;9.38;;;;;;;;;;5085319;28;20040;-65
2023/05/03 05:29:36;;;;;;;14.05;9.02;;;;;;;;;;5090158;28;20035;-65
2023/05/03 05:32:04;;;;;;;15.15;9.07;;;;;;;;;;5078538;28;20035;-65
2023/05/03 05:34:29;;;;;;;20.42;10.13;;;;;;;;;;5092666;28;20103;-64
2023/05/03 05:36:55;;;;;;;17.90;9.80;;;;;;;;;;5092090;28;20127;-65
2023/05/03 05:39:22;;;;;;;14.52;8.02;;;;;;;;;;5092536;28;20024;-65
2023/05/03 05:41:47;;;;;;;17.98;9.52;;;;;;;;;;5091487;28;20077;-65
2023/05/03 05:44:12;;;;;;;13.85;9.23;;;;;;;;;;5091494;28;20040;-65
2023/05/03 05:46:37;;;;;;;15.27;9.07;;;;;;;;;;5089986;28;20686;-65
2023/05/03 05:49:03;;;;;;;10.32;8.55;;;;;;;;;;5093083;28;20166;-65
2023/05/03 05:51:29;;;;;;;12.02;8.70;;;;;;;;;;5091963;28;20012;-64
2023/05/03 05:53:54;;;;;;;18.10;9.45;;;;;;;;;;5092691;28;20028;-65
2023/05/03 05:56:20;;;;;;;21.10;9.13;;;;;;;;;;5092558;28;20387;-64
2023/05/03 05:58:45;;;;;;;14.95;8.32;;;;;;;;;;5092673;28;20054;-65
2023/05/03 06:01:11;;;;;;;14.25;8.63;;;;;;;;;;5093282;28;20035;-65
2023/05/03 06:03:36;;;;;;;15.57;9.13;;;;;;;;;;5092641;28;20483;-66
2023/05/03 06:06:02;;;;;;;14.40;8.10;;;;;;;;;;5091840;28;20028;-65
2023/05/03 06:08:27;;;;;;;10.98;8.27;;;;;;;;;;5091080;28;20428;-65
2023/05/03 06:10:53;;;;;;;13.05;9.27;;;;;;;;;;5085225;28;20028;-65
2023/05/03 06:13:18;;;;;;;12.63;8.77;;;;;;;;;;5085487;28;20091;-65
2023/05/03 06:15:43;;;;;;;15.60;8.77;;;;;;;;;;5092183;28;20024;-65
2023/05/03 06:18:08;;;;;;;12.77;8.32;;;;;;;;;;5087345;28;20028;-65
2023/05/03 06:20:34;;;;;;;12.73;7.60;;;;;;;;;;5084882;28;20024;-65
2023/05/03 06:23:00;;;;;;;19.80;8.70;;;;;;;;;;5088347;28;20032;-65
2023/05/03 06:25:25;;;;;;;13.68;8.02;;;;;;;;;;5092148;28;20056;-64
2023/05/03 06:27:51;;;;;;;18.23;7.93;;;;;;;;;;5091906;28;20043;-65
2023/05/03 06:30:16;;;;;;;15.13;8.50;;;;;;;;;;5092920;28;20028;-65
2023/05/03 06:32:42;;;;;;;11.35;8.38;;;;;;;;;;5091935;28;20103;-63
2023/05/03 06:35:11;;;;;;;13.38;8.68;;;;;;;;;;5092890;28;20402;-62
2023/05/03 06:37:36;;;;;;;11.90;7.75;;;;;;;;;;5091213;28;20065;-63
2023/05/03 06:40:01;;;;;;;10.55;7.65;;;;;;;;;;5091836;28;20405;-64
2023/05/03 06:42:27;;;;;;;13.82;8.65;;;;;;;;;;5090039;28;20024;-64
2023/05/03 06:44:52;;;;;;;9.63;7.72;;;;;;;;;;5092376;28;20046;-63
2023/05/03 06:47:19;;;;;;;13.90;8.73;;;;;;;;;;5092307;28;20028;-63
2023/05/03 06:49:44;;;;;;;21.75;8.10;;;;;;;;;;5091357;28;20036;-67
2023/05/03 06:52:10;;;;;;;11.63;7.43;;;;;;;;;;5092246;28;20474;-63
2023/05/03 06:54:35;;;;;;;12.75;7.90;;;;;;;;;;5091902;28;20107;-63
2023/05/03 06:57:01;;;;;;;12.27;8.02;;;;;;;;;;5085731;28;20028;-64
2023/05/03 06:59:26;;;;;;;13.05;7.28;;;;;;;;;;5091872;28;20028;-63
2023/05/03 07:01:52;;;;;;;14.85;7.80;;;;;;;;;;5091982;28;20024;-64
2023/05/03 07:04:17;;;;;;;11.50;8.05;;;;;;;;;;5092218;28;20477;-63
2023/05/03 07:06:43;;;;;;;11.13;7.68;;;;;;;;;;5037260;28;20840;-63
2023/05/03 07:09:09;;;;;;;11.38;7.35;;;;;;;;;;5070878;28;20300;-63
2023/05/03 07:11:36;;;;;;;12.27;7.50;;;;;;;;;;5085374;28;20347;-63
2023/05/03 07:14:01;;;;;;;14.27;9.80;;;;;;;;;;5091771;28;20111;-63
2023/05/03 07:16:26;;;;;;;12.32;7.93;;;;;;;;;;5092248;28;20140;-64
2023/05/03 07:18:51;;;;;;;12.40;8.60;;;;;;;;;;5081704;28;20028;-63
2023/05/03 07:21:17;;;;;;;20.77;8.70;;;;;;;;;;5083504;28;20534;-63
2023/05/03 07:23:43;;;;;;;15.60;7.72;;;;;;;;;;5086717;28;20031;-63
2023/05/03 07:26:08;;;;;;;25.92;9.30;;;;;;;;;;5091483;28;20501;-64
2023/05/03 07:28:34;;;;;;;12.48;8.77;;;;;;;;;;5091193;28;20028;-64
2023/05/03 07:30:59;;;;;;;13.70;9.90;;;;;;;;;;5091737;28;20099;-64
2023/05/03 07:33:24;;;;;;;15.65;9.30;;;;;;;;;;5090962;28;20016;-63
2023/05/03 07:35:50;;;;;;;12.18;8.93;;;;;;;;;;5091608;28;20170;-63
2023/05/03 07:38:15;;;;;;;13.18;9.20;;;;;;;;;;5086381;28;20531;-63
2023/05/03 07:40:41;;;;;;;15.68;9.77;;;;;;;;;;5090951;28;20012;-63
2023/05/03 07:43:08;;;;;;;15.93;9.80;;;;;;;;;;5088852;28;20032;-63
2023/05/03 07:45:34;;;;;;;13.40;9.63;;;;;;;;;;5071081;28;20024;-64
2023/05/03 07:47:59;;;;;;;15.68;9.70;;;;;;;;;;5060449;28;21071;-64
2023/05/03 07:50:24;;;;;;;19.85;9.48;;;;;;;;;;5071314;28;20029;-64
2023/05/03 07:52:50;;;;;;;15.68;9.90;;;;;;;;;;5063324;28;20032;-63
2023/05/03 07:55:18;;;;;;;17.45;9.48;;;;;;;;;;5084991;28;20056;-63
2023/05/03 07:57:44;;;;;;;18.60;10.60;;;;;;;;;;5091350;28;20028;-64
2023/05/03 08:00:09;;;;;;;14.40;9.27;;;;;;;;;;5091489;28;20462;-64
2023/05/03 08:02:35;;;;;;;15.00;9.27;;;;;;;;;;5090232;28;20470;-64
2023/05/03 08:05:00;;;;;;;12.98;9.32;;;;;;;;;;5089219;28;20065;-63
2023/05/03 08:07:27;;;;;;;14.52;8.32;;;;;;;;;;5074021;28;20391;-64
2023/05/03 08:09:52;;;;;;;12.25;8.98;;;;;;;;;;5058331;28;20578;-64
2023/05/03 08:12:18;;;;;;;11.57;8.00;;;;;;;;;;5069265;28;20102;-62
2023/05/03 08:14:43;;;;;;;13.50;8.35;;;;;;;;;;5066213;28;20977;-63
2023/05/03 08:17:08;;;;;;;18.15;8.70;;;;;;;;;;5062130;28;20031;-65
2023/05/03 08:19:34;;;;;;;10.50;7.63;;;;;;;;;;5065220;28;20104;-63
2023/05/03 08:22:00;;;;;;;17.08;9.00;;;;;;;;;;5090007;28;20424;-63
2023/05/03 08:24:25;;;;;;;14.68;8.18;;;;;;;;;;5089083;28;20019;-63
2023/05/03 08:26:52;;;;;;;13.07;8.52;;;;;;;;;;5087761;28;20509;-63
2023/05/03 08:29:17;;;;;;;14.52;8.40;;;;;;;;;;5073818;28;20917;-64
2023/05/03 08:31:43;;;;;;;14.82;7.75;;;;;;;;;;5052300;28;20034;-64
2023/05/03 08:34:09;;;;;;;11.90;7.70;;;;;;;;;;5056807;28;20926;-64
2023/05/03 08:36:36;;;;;;;14.35;7.65;;;;;;;;;;5066214;28;20032;-64
2023/05/03 08:39:05;;;;;;;11.57;8.18;;;;;;;;;;5086129;28;20040;-63
2023/05/03 08:41:31;;;;;;;13.90;9.05;;;;;;;;;;5081721;28;20032;-63
2023/05/03 08:43:56;;;;;;;15.40;8.23;;;;;;;;;;5087768;28;20024;-63
2023/05/03 08:46:24;;;;;;;13.98;8.25;;;;;;;;;;5087994;28;20036;-63
2023/05/03 08:48:51;;;;;;;14.57;7.65;;;;;;;;;;5082855;28;20131;-64
2023/05/03 08:51:17;;;;;;;19.83;8.15;;;;;;;;;;5086213;28;20016;-64
2023/05/03 08:53:42;;;;;;;11.05;7.38;;;;;;;;;;5085445;28;20009;-64
2023/05/03 08:56:08;;;;;;;15.13;8.15;;;;;;;;;;5069436;28;20051;-63
2023/05/03 08:58:35;;;;;;;12.32;7.57;;;;;;;;;;5066923;28;20027;-63
2023/05/03 09:01:05;;;;;;;12.15;6.93;;;;;;;;;;5071602;28;20192;-63
2023/05/03 09:03:30;;;;;;;12.38;7.15;;;;;;;;;;5065740;28;20836;-64
2023/05/03 09:06:00;;;;;;;17.17;7.30;;;;;;;;;;5073632;28;20039;-64
2023/05/03 09:08:26;;;;;;;16.45;6.57;;;;;;;;;;5050239;28;20035;-64
2023/05/03 09:10:51;;;;;;;13.23;6.75;;;;;;;;;;5060796;28;20786;-64
2023/05/03 09:13:16;;;;;;;9.82;5.68;;;;;;;;;;5075502;28;20458;-64
2023/05/03 09:15:45;;;;;;;10.30;6.18;;;;;;;;;;5076242;28;20012;-65
2023/05/03 09:18:18;;;;;;;9.43;6.25;;;;;;;;;;5075201;28;20032;-64
2023/05/03 09:20:50;;;;;;;9.57;5.40;;;;;;;;;;5059068;28;20021;-63
2023/05/03 09:23:16;;;;;;;11.68;7.10;;;;;;;;;;5048036;28;20820;-63
2023/05/03 09:25:48;;;;;;;7.95;6.28;;;;;;;;;;5078404;28;20046;-63
2023/05/03 09:28:14;;;;;;;12.18;7.07;;;;;;;;;;5075493;28;20039;-64
2023/05/03 09:30:40;;;;;;;8.85;6.57;;;;;;;;;;5061404;28;20024;-66
2023/05/03 09:33:06;;;;;;;14.80;6.30;;;;;;;;;;5080755;28;20036;-65
2023/05/03 09:35:32;;;;;;;13.18;5.57;;;;;;;;;;5072445;28;20846;-64
2023/05/03 09:37:58;;;;;;;9.80;5.90;;;;;;;;;;5064776;28;20051;-64
2023/05/03 09:40:24;;;;;;;11.02;6.20;;;;;;;;;;5068264;28;20896;-64
2023/05/03 09:43:16;;;;;;;13.40;6.68;;;;;;;;;;5068983;28;20154;-65
2023/05/03 09:45:41;;;;;;;10.55;6.38;;;;;;;;;;5036935;28;20250;-64
2023/05/03 09:48:07;;;;;;;11.30;6.45;;;;;;;;;;5043098;28;20032;-64
2023/05/03 09:50:33;;;;;;;8.00;5.97;;;;;;;;;;5034928;28;20028;-64
2023/05/03 09:53:05;;;;;;;11.32;7.32;;;;;;;;;;5051374;28;20887;-64
2023/05/03 09:55:39;;;;;;;11.25;7.13;;;;;;;;;;5046323;28;20090;-64
2023/05/03 09:58:08;;;;;;;;;;;;;;;;;;5087230;28;20036;-64
2023/05/03 10:00:37;;;;;;;11.48;6.93;;;;;;;;;;5087184;28;19948;-63
2023/05/03 10:03:06;;;;;;;8.95;6.13;;;;;;;;;;5087364;28;20028;-64
2023/05/03 10:05:32;;;;;;;8.23;5.57;;;;;;;;;;5086342;28;20815;-64
2023/05/03 10:07:59;;;;;;;11.02;6.45;;;;;;;;;;5059234;28;20031;-64
2023/05/03 10:10:26;;;;;;;12.20;6.55;;;;;;;;;;5082825;28;20124;-65
2023/05/03 10:12:54;;;;;;;12.13;5.93;;;;;;;;;;5080529;28;20506;-64
2023/05/03 10:15:21;;;;;;;14.10;6.90;;;;;;;;;;5084562;28;20024;-64
2023/05/03 10:17:49;;;;;;;10.20;6.03;;;;;;;;;;5084124;28;20086;-64
2023/05/03 10:20:14;;;;;;;8.65;5.90;;;;;;;;;;5084394;28;20064;-64
2023/05/03 10:22:58;;;;;;;11.30;6.23;;;;;;;;;;5083319;28;20063;-64
2023/05/03 10:25:23;;;;;;;10.73;6.38;;;;;;;;;;5083134;28;20270;-64
2023/05/03 10:27:50;;;;;;;8.55;6.00;;;;;;;;;;5084602;28;20094;-64
2023/05/03 10:30:36;;;;;;;13.57;6.63;;;;;;;;;;5083957;28;20043;-64
2023/05/03 10:33:13;;;;;;;12.23;6.97;;;;;;;;;;5063899;28;20498;-64
2023/05/03 10:35:42;;;;;;;8.20;5.75;;;;;;;;;;5076700;28;20444;-64
2023/05/03 10:38:33;;;;;;;11.00;6.07;;;;;;;;;;5075681;28;20057;-64
2023/05/03 10:41:02;;;;;;;8.27;6.10;;;;;;;;;;5066680;28;20072;-64
2023/05/03 10:43:30;;;;;;;11.38;5.72;;;;;;;;;;5073280;28;20027;-64
2023/05/03 10:45:56;;;;;;;8.10;6.43;;;;;;;;;;5077763;28;20230;-64
2023/05/03 10:48:21;;;;;;;15.88;6.85;;;;;;;;;;5080239;28;20493;-64
2023/05/03 10:50:47;;;;;;;14.35;6.28;;;;;;;;;;5074151;28;20032;-64
2023/05/03 10:53:37;;;;;;;10.40;6.10;;;;;;;;;;5078750;28;20031;-63
2023/05/03 10:56:12;;;;;;;14.05;6.65;;;;;;;;;;5070030;28;20482;-64
2023/05/03 10:58:41;;;;;;;9.63;5.97;;;;;;;;;;5075207;28;20255;-64
2023/05/03 11:01:08;;;;;;;8.60;5.72;;;;;;;;;;5075004;28;20027;-64
2023/05/03 11:03:47;;;;;;;8.77;5.25;;;;;;;;;;5053614;28;20836;-65
2023/05/03 11:06:32;;;;;;;11.68;6.20;;;;;;;;;;5069378;28;20036;-64
2023/05/03 11:08:57;;;;;;;8.45;5.88;;;;;;;;;;5069902;28;20073;-65
2023/05/03 11:11:22;;;;;;;11.23;6.30;;;;;;;;;;5074163;28;20027;-65
2023/05/03 11:13:49;;;;;;;9.07;5.15;;;;;;;;;;5069475;28;20093;-64
2023/05/03 11:16:14;;;;;;;10.55;5.35;;;;;;;;;;5076177;28;20024;-65
2023/05/03 11:18:40;;;;;;;12.07;6.05;;;;;;;;;;5078169;28;20051;-64
2023/05/03 11:21:05;;;;;;;9.25;5.63;;;;;;;;;;5078054;28;20112;-64
2023/05/03 11:23:30;;;;;;;16.58;6.65;;;;;;;;;;5082119;28;20028;-63
2023/05/03 11:25:56;;;;;;;11.00;6.53;;;;;;;;;;5083425;28;20463;-64
2023/05/03 11:28:22;;;;;;;9.43;6.18;;;;;;;;;;5085728;28;20048;-64
2023/05/03 11:30:47;;;;;;;8.18;6.03;;;;;;;;;;5083210;28;20040;-64
2023/05/03 11:33:13;;;;;;;11.05;6.50;;;;;;;;;;5080324;28;20073;-64
2023/05/03 11:35:38;;;;;;;8.70;6.57;;;;;;;;;;5082778;28;20024;-64
2023/05/03 11:38:03;;;;;;;7.20;5.70;;;;;;;;;;5079472;28;20107;-64
2023/05/03 11:40:29;;;;;;;12.68;6.10;;;;;;;;;;5080124;28;20646;-64
2023/05/03 11:42:55;;;;;;;10.45;6.28;;;;;;;;;;5076267;28;20028;-64
2023/05/03 11:45:24;;;;;;;11.70;6.03;;;;;;;;;;5083066;28;20068;-64
2023/05/03 11:47:50;;;;;;;8.07;6.30;;;;;;;;;;5078868;28;20054;-64
2023/05/03 11:50:16;;;;;;;14.30;7.18;;;;;;;;;;5067634;28;20028;-64
2023/05/03 11:52:41;;;;;;;8.57;6.10;;;;;;;;;;5085034;28;20065;-65
2023/05/03 11:55:07;;;;;;;11.35;5.82;;;;;;;;;;5083481;28;20067;-65
2023/05/03 11:57:33;;;;;;;11.50;7.20;;;;;;;;;;5086310;28;20024;-65
2023/05/03 12:00:13;;;;;;;13.75;6.93;;;;;;;;;;5085185;28;20031;-64
2023/05/03 12:02:38;;;;;;;9.98;6.72;;;;;;;;;;5074737;28;20028;-65
2023/05/03 12:05:05;;;;;;;9.50;6.72;;;;;;;;;;5073646;28;20032;-65
2023/05/03 12:07:30;;;;;;;8.38;5.95;;;;;;;;;;5085303;28;20531;-65
2023/05/03 12:09:56;;;;;;;12.30;6.13;;;;;;;;;;5078034;28;20127;-64
2023/05/03 12:12:21;;;;;;;9.27;5.93;;;;;;;;;;5083360;28;20039;-65
2023/05/03 12:14:59;;;;;;;8.85;6.13;;;;;;;;;;5083682;28;20489;-65
2023/05/03 12:17:37;;;;;;;10.25;6.47;;;;;;;;;;5072602;28;20020;-64
2023/05/03 12:20:19;;;;;;;12.60;6.38;;;;;;;;;;5076952;28;20027;-65
2023/05/03 12:22:47;;;;;;;12.57;7.32;;;;;;;;;;5084467;28;20146;-65
2023/05/03 12:25:12;;;;;;;12.27;6.72;;;;;;;;;;5083801;28;20024;-64
2023/05/03 12:27:38;;;;;;;14.30;6.93;;;;;;;;;;5082096;28;20563;-65
2023/05/03 12:30:03;;;;;;;10.90;6.28;;;;;;;;;;5080070;28;20123;-64
2023/05/03 12:32:29;;;;;;;9.35;6.38;;;;;;;;;;5082272;28;20412;-64
2023/05/03 12:34:54;;;;;;;9.75;6.00;;;;;;;;;;5067188;28;20064;-65
2023/05/03 12:37:20;;;;;;;10.18;6.25;;;;;;;;;;5081580;28;20497;-65
2023/05/03 12:39:45;;;;;;;14.27;7.10;;;;;;;;;;5082772;28;20024;-64
2023/05/03 12:42:10;;;;;;;13.15;7.30;;;;;;;;;;5088315;28;20050;-64
2023/05/03 12:44:38;;;;;;;18.60;6.55;;;;;;;;;;5085047;28;20506;-64
2023/05/03 12:47:03;;;;;;;9.10;6.07;;;;;;;;;;5087221;28;20040;-65
2023/05/03 12:49:28;;;;;;;8.05;5.45;;;;;;;;;;5085141;28;20028;-65
2023/05/03 12:51:59;;;;;;;8.75;5.28;;;;;;;;;;5085291;28;20024;-65
2023/05/03 12:54:24;;;;;;;11.75;6.20;;;;;;;;;;5086592;28;20077;-65
2023/05/03 12:56:49;;;;;;;10.90;5.87;;;;;;;;;;5089071;28;20020;-64
2023/05/03 12:59:14;;;;;;;9.20;5.80;;;;;;;;;;5088963;28;20293;-65
2023/05/03 13:01:40;;;;;;;9.70;5.67;;;;;;;;;;5083523;28;20020;-65
2023/05/03 13:04:05;;;;;;;8.80;5.37;;;;;;;;;;5090118;28;20386;-66
2023/05/03 13:06:31;;;;;;;12.37;6.23;;;;;;;;;;5088082;28;20290;-65
2023/05/03 13:08:57;;;;;;;12.45;6.43;;;;;;;;;;5083641;28;20282;-64
2023/05/03 13:11:23;;;;;;;8.95;5.75;;;;;;;;;;5076536;28;20030;-65
2023/05/03 13:13:50;;;;;;;12.23;5.18;;;;;;;;;;5078529;28;20032;-65
2023/05/03 13:16:15;;;;;;;10.60;5.93;;;;;;;;;;5085726;28;20031;-65
2023/05/03 13:18:41;;;;;;;9.93;5.65;;;;;;;;;;5076413;28;20036;-64
2023/05/03 13:21:07;;;;;;;11.00;6.18;;;;;;;;;;5083338;28;20051;-64
2023/05/03 13:23:32;;;;;;;7.00;5.43;;;;;;;;;;5078976;28;20024;-64
2023/05/03 13:25:58;;;;;;;8.95;5.85;;;;;;;;;;5076249;28;20032;-66
2023/05/03 13:28:23;;;;;;;7.38;5.75;;;;;;;;;;5074382;28;20028;-64
2023/05/03 13:30:49;;;;;;;12.00;5.18;;;;;;;;;;5085257;28;20032;-64
2023/05/03 13:33:14;;;;;;;7.85;4.97;;;;;;;;;;5087177;28;20036;-64
2023/05/03 13:35:39;;;;;;;6.43;4.43;;;;;;;;;;5086382;28;20041;-64
2023/05/03 13:38:04;;;;;;;7.40;4.80;;;;;;;;;;5085672;28;20274;-64
2023/05/03 13:40:30;;;;;;;8.07;5.77;;;;;;;;;;5084833;28;20684;-64
2023/05/03 13:42:55;;;;;;;7.22;5.25;;;;;;;;;;5086800;28;20293;-64
2023/05/03 13:45:21;;;;;;;10.18;4.88;;;;;;;;;;5050522;28;20032;-64
2023/05/03 13:47:46;;;;;;;6.38;4.50;;;;;;;;;;5065032;28;20111;-64
2023/05/03 13:50:11;;;;;;;10.70;5.07;;;;;;;;;;5086539;28;20056;-64
2023/05/03 13:52:36;;;;;;;6.95;4.75;;;;;;;;;;5078748;28;20044;-64
2023/05/03 13:55:03;;;;;;;12.25;4.93;;;;;;;;;;5088405;28;20038;-61
2023/05/03 13:57:28;;;;;;;11.55;5.45;;;;;;;;;;5084643;28;20024;-60
2023/05/03 13:59:53;;;;;;;9.23;5.22;;;;;;;;;;5086145;28;20039;-62
2023/05/03 14:02:18;;;;;;;10.97;6.50;;;;;;;;;;5088723;28;20387;-64
2023/05/03 14:04:45;;;;;;;9.25;5.63;;;;;;;;;;5088666;28;20274;-64
2023/05/03 14:07:10;;;;;;;12.38;6.13;;;;;;;;;;5082613;28;20040;-62
2023/05/03 14:09:38;;;;;;;9.50;5.10;;;;;;;;;;5082502;28;20524;-64
2023/05/03 14:12:04;;;;;;;7.03;4.65;;;;;;;;;;5076307;28;20437;-65
2023/05/03 14:14:29;;;;;;;7.75;5.05;;;;;;;;;;5086583;28;20058;-65
2023/05/03 14:16:55;;;;;;;16.90;5.37;;;;;;;;;;5083270;28;20063;-65
2023/05/03 14:19:20;;;;;;;14.30;5.25;;;;;;;;;;5080869;28;20297;-64
2023/05/03 14:21:48;;;;;;;7.57;4.88;;;;;;;;;;5085369;28;20020;-64
2023/05/03 14:24:13;;;;;;;12.05;5.60;;;;;;;;;;5084840;28;20028;-61
2023/05/03 14:26:39;;;;;;;9.77;5.50;;;;;;;;;;5087576;28;20032;-65
2023/05/03 14:29:04;;;;;;;12.35;5.63;;;;;;;;;;5087117;28;20047;-65